Time;durP1;ratioP1;P1;durP2;ratioP2;P2;SDS_P1;SDS_P2;PMS_P1;PMS_P2;Temp;Humidity;BMP_temperature;BMP_pressure;BME280_temperature;BME280_humidity;BME280_pressure;Samples;Min_cycle;Max_cycle;Signal;HPM_P1;HPM_P2
2022/08/17 00:00:26;;;;;;;8.87;8.20;;;18.80;99.90;;;;;;4911606;28;20492;-85
2022/08/17 00:03:25;;;;;;;9.30;8.40;;;18.60;99.90;;;;;;4903732;28;20828;-85
2022/08/17 00:05:58;;;;;;;10.07;8.07;;;18.50;99.90;;;;;;4922746;28;20435;-85
2022/08/17 00:08:33;;;;;;;9.60;8.90;;;18.50;99.90;;;;;;4923098;28;20482;-85
2022/08/17 00:11:00;;;;;;;8.40;7.80;;;18.60;99.90;;;;;;4911971;28;20446;-85
2022/08/17 00:13:52;;;;;;;8.67;7.97;;;18.60;99.90;;;;;;4913284;28;20457;-85
2022/08/17 00:16:25;;;;;;;9.70;8.93;;;18.60;99.90;;;;;;4921718;28;20841;-85
2022/08/17 00:18:51;;;;;;;9.33;8.63;;;18.50;99.90;;;;;;4906605;28;20470;-84
2022/08/17 00:21:21;;;;;;;9.10;8.40;;;18.50;99.90;;;;;;4922700;28;20511;-85
2022/08/17 00:23:47;;;;;;;10.37;9.47;;;18.50;99.90;;;;;;4901520;28;20764;-85
2022/08/17 00:26:14;;;;;;;9.17;8.37;;;18.50;99.90;;;;;;4921364;28;20442;-85
2022/08/17 00:28:40;;;;;;;9.33;8.63;;;18.40;99.90;;;;;;4932661;28;20481;-84
2022/08/17 00:31:08;;;;;;;9.23;8.53;;;18.40;99.90;;;;;;4935587;28;20825;-85
2022/08/17 00:33:35;;;;;;;9.53;8.57;;;18.40;99.90;;;;;;4935769;28;20195;-85
2022/08/17 00:36:00;;;;;;;9.30;8.47;;;18.40;99.90;;;;;;4914724;28;20582;-85
2022/08/17 00:38:27;;;;;;;8.60;8.00;;;18.40;99.90;;;;;;4910079;28;20447;-84
2022/08/17 00:40:56;;;;;;;9.87;8.97;;;18.30;99.90;;;;;;4904772;28;20595;-84
2022/08/17 00:43:46;;;;;;;9.43;8.60;;;18.40;99.90;;;;;;4924470;28;20923;-84
2022/08/17 00:46:19;;;;;;;9.93;9.00;;;18.30;99.90;;;;;;4909368;28;20467;-85
2022/08/17 00:48:45;;;;;;;10.13;9.13;;;18.30;99.90;;;;;;4923876;28;20482;-85
2022/08/17 00:51:14;;;;;;;10.10;9.30;;;18.20;99.90;;;;;;4909132;28;20964;-85
2022/08/17 00:53:43;;;;;;;10.10;9.33;;;18.10;99.90;;;;;;4912159;28;21226;-85
2022/08/17 00:56:18;;;;;;;10.30;9.50;;;18.00;99.90;;;;;;4924986;28;20815;-84
2022/08/17 00:58:43;;;;;;;9.33;8.63;;;18.00;99.90;;;;;;4909461;28;20442;-85
2022/08/17 01:01:11;;;;;;;9.50;8.80;;;18.30;99.90;;;;;;4916029;28;20857;-85
2022/08/17 01:03:38;;;;;;;9.30;8.63;;;18.20;99.90;;;;;;4909368;28;20280;-85
2022/08/17 01:06:06;;;;;;;9.80;8.90;;;18.10;99.90;;;;;;4919684;28;20514;-85
2022/08/17 01:08:37;;;;;;;9.10;8.40;;;18.10;99.90;;;;;;4902523;28;20514;-84
2022/08/17 01:11:07;;;;;;;9.83;9.10;;;18.10;99.90;;;;;;4915178;28;20486;-84
2022/08/17 01:13:37;;;;;;;10.00;9.20;;;18.10;99.90;;;;;;4935607;28;20507;-84
2022/08/17 01:16:30;;;;;;;9.77;9.07;;;18.00;99.90;;;;;;4914882;28;20527;-84
2022/08/17 01:19:00;;;;;;;9.60;8.70;;;17.90;99.90;;;;;;4924405;28;21225;-84
2022/08/17 01:21:54;;;;;;;9.30;8.50;;;18.00;99.90;;;;;;4912871;28;20538;-84
2022/08/17 01:24:19;;;;;;;9.73;9.03;;;18.00;99.90;;;;;;4910932;28;20442;-84
2022/08/17 01:26:46;;;;;;;9.43;8.73;;;17.90;99.90;;;;;;4914891;28;20496;-84
2022/08/17 01:29:12;;;;;;;9.47;8.57;;;17.90;99.90;;;;;;4921506;28;20294;-84
2022/08/17 01:31:44;;;;;;;9.73;8.90;;;17.90;99.90;;;;;;4937114;28;20972;-84
2022/08/17 01:34:12;;;;;;;9.47;8.77;;;18.00;99.90;;;;;;4919501;28;20449;-84
2022/08/17 01:36:40;;;;;;;10.30;9.50;;;17.90;99.90;;;;;;4923566;28;20746;-85
2022/08/17 01:39:14;;;;;;;9.57;8.87;;;17.90;99.90;;;;;;4916157;28;20820;-84
2022/08/17 01:41:40;;;;;;;9.63;8.83;;;17.90;99.90;;;;;;4920400;28;20441;-84
2022/08/17 01:44:06;;;;;;;9.03;8.23;;;17.80;99.90;;;;;;4909412;28;20537;-84
2022/08/17 01:46:34;;;;;;;9.70;8.87;;;17.80;99.90;;;;;;4924615;28;20447;-85
2022/08/17 01:49:11;;;;;;;10.33;8.83;;;17.60;99.90;;;;;;4907014;28;21233;-85
2022/08/17 01:51:43;;;;;;;10.43;9.57;;;17.70;99.90;;;;;;4921930;28;20959;-85
2022/08/17 01:54:12;;;;;;;9.87;9.07;;;17.70;99.90;;;;;;4928650;28;20450;-87
2022/08/17 01:56:42;;;;;;;10.27;9.30;;;17.70;99.90;;;;;;4922426;28;20453;-87
2022/08/17 01:59:08;;;;;;;9.40;8.70;;;17.70;99.90;;;;;;4922477;28;20454;-86
2022/08/17 02:01:34;;;;;;;10.23;9.37;;;17.60;99.90;;;;;;4918618;28;20459;-87
2022/08/17 02:04:01;;;;;;;9.67;8.97;;;17.50;99.90;;;;;;4931853;28;20190;-86
2022/08/17 02:06:33;;;;;;;9.97;9.17;;;17.50;99.90;;;;;;4920951;28;20438;-86
2022/08/17 02:09:10;;;;;;;9.43;8.63;;;17.50;99.90;;;;;;4939670;28;21893;-86
2022/08/17 02:11:37;;;;;;;9.70;8.90;;;17.40;99.90;;;;;;4929110;28;20478;-86
2022/08/17 02:14:04;;;;;;;8.97;8.30;;;17.50;99.90;;;;;;4922952;28;20453;-86
2022/08/17 02:16:39;;;;;;;9.30;8.60;;;17.50;99.90;;;;;;4924513;28;20529;-87
2022/08/17 02:19:09;;;;;;;9.53;8.83;;;17.50;99.90;;;;;;4909907;29;20507;-86
2022/08/17 02:21:37;;;;;;;8.17;7.57;;;17.60;99.90;;;;;;4930075;28;20478;-87
2022/08/17 02:24:05;;;;;;;9.37;8.63;;;17.60;99.90;;;;;;4918495;28;20501;-86
2022/08/17 02:26:31;;;;;;;10.00;9.30;;;17.60;99.90;;;;;;4912377;28;20454;-86
2022/08/17 02:28:56;;;;;;;9.90;9.10;;;17.70;99.90;;;;;;4912691;28;20489;-86
2022/08/17 02:31:24;;;;;;;9.20;8.50;;;17.70;99.90;;;;;;4914879;28;20645;-86
2022/08/17 02:33:50;;;;;;;9.70;8.70;;;17.80;99.90;;;;;;4922359;28;20235;-87
2022/08/17 02:36:15;;;;;;;9.90;9.10;;;17.80;99.90;;;;;;4938907;28;20474;-87
2022/08/17 02:38:41;;;;;;;9.47;8.67;;;17.70;99.90;;;;;;4939522;28;20709;-87
2022/08/17 02:41:07;;;;;;;10.43;9.40;;;17.70;99.90;;;;;;4910433;28;20195;-86
2022/08/17 02:43:33;;;;;;;9.57;8.70;;;17.60;99.90;;;;;;4921982;28;20194;-86
2022/08/17 02:45:58;;;;;;;9.77;8.83;;;17.40;99.90;;;;;;4925039;28;20443;-86
2022/08/17 02:48:24;;;;;;;9.77;8.97;;;17.40;99.90;;;;;;4923460;28;20521;-86
2022/08/17 02:50:49;;;;;;;9.90;9.10;;;17.30;99.90;;;;;;4921136;28;20187;-86
2022/08/17 02:53:15;;;;;;;9.53;8.63;;;17.30;99.90;;;;;;4928364;28;20221;-86
2022/08/17 02:55:44;;;;;;;9.73;8.93;;;17.30;99.90;;;;;;4940891;28;20568;-86
2022/08/17 02:58:10;;;;;;;9.20;8.40;;;17.30;99.90;;;;;;4920520;28;20206;-86
2022/08/17 03:00:42;;;;;;;9.30;8.50;;;17.30;99.90;;;;;;4927039;28;20560;-86
2022/08/17 03:03:09;;;;;;;9.33;8.63;;;17.40;99.90;;;;;;4922167;28;20503;-86
2022/08/17 03:05:41;;;;;;;9.70;8.90;;;17.40;99.90;;;;;;4941657;28;20439;-86
2022/08/17 03:08:07;;;;;;;10.27;9.30;;;17.40;99.90;;;;;;4921055;28;21008;-86
2022/08/17 03:10:33;;;;;;;9.43;8.63;;;17.30;99.90;;;;;;4934752;28;20489;-86
2022/08/17 03:12:59;;;;;;;8.77;8.17;;;17.30;99.90;;;;;;4922739;28;20187;-86
2022/08/17 03:15:27;;;;;;;9.03;8.23;;;17.30;99.90;;;;;;4922207;28;20646;-85
2022/08/17 03:17:54;;;;;;;9.07;8.37;;;17.40;99.90;;;;;;4925746;28;20194;-86
2022/08/17 03:20:20;;;;;;;9.70;8.90;;;17.60;99.90;;;;;;4932028;28;20969;-85
2022/08/17 03:22:49;;;;;;;15.97;11.33;;;17.50;99.90;;;;;;4925889;28;20442;-86
2022/08/17 03:25:18;;;;;;;12.53;11.40;;;17.50;99.90;;;;;;4921531;28;20529;-86
2022/08/17 03:27:44;;;;;;;12.70;11.70;;;17.40;99.90;;;;;;4923063;28;20469;-86
2022/08/17 03:30:12;;;;;;;12.53;11.47;;;17.40;99.90;;;;;;4905703;28;20487;-86
2022/08/17 03:32:44;;;;;;;12.07;11.03;;;17.30;99.90;;;;;;4922104;28;20646;-86
2022/08/17 03:35:12;;;;;;;12.57;11.57;;;17.20;99.90;;;;;;4907673;28;20438;-86
2022/08/17 03:37:37;;;;;;;11.30;10.30;;;17.20;99.90;;;;;;4905292;28;20981;-86
2022/08/17 03:40:13;;;;;;;11.90;10.70;;;17.10;99.90;;;;;;4906144;28;21344;-85
2022/08/17 03:42:53;;;;;;;11.37;10.37;;;17.10;99.90;;;;;;4927221;28;20716;-86
2022/08/17 03:56:41;;;;;;;12.07;11.00;;;17.10;99.90;;;;;;4906752;28;20439;-86
2022/08/17 03:56:43;;;;;;;12.03;11.13;;;16.70;99.90;;;;;;4923807;28;20492;-87
2022/08/17 03:59:18;;;;;;;10.33;9.53;;;16.60;99.90;;;;;;4915512;28;21258;-86
2022/08/17 04:01:46;;;;;;;12.13;11.17;;;16.70;99.90;;;;;;4906042;28;20438;-86
2022/08/17 04:04:12;;;;;;;10.77;9.87;;;16.70;99.90;;;;;;4923028;28;20789;-85
2022/08/17 04:06:39;;;;;;;10.83;9.90;;;16.70;99.90;;;;;;4902295;28;20461;-86
2022/08/17 04:09:05;;;;;;;10.60;9.80;;;16.70;99.90;;;;;;4914566;28;20479;-86
2022/08/17 04:11:32;;;;;;;11.17;10.27;;;16.90;99.90;;;;;;4908701;28;20463;-86
2022/08/17 04:13:57;;;;;;;10.77;9.90;;;16.90;99.90;;;;;;4910679;29;20457;-86
2022/08/17 04:16:24;;;;;;;11.40;10.40;;;16.90;99.90;;;;;;4894434;28;20471;-86
2022/08/17 04:18:50;;;;;;;11.30;10.50;;;17.00;99.90;;;;;;4917534;28;20195;-87
2022/08/17 04:21:16;;;;;;;11.70;10.70;;;17.10;99.90;;;;;;4909805;28;20993;-86
2022/08/17 04:23:42;;;;;;;12.07;11.17;;;17.10;99.90;;;;;;4921845;28;20452;-86
2022/08/17 04:26:08;;;;;;;11.23;10.20;;;17.10;99.90;;;;;;4919804;28;20808;-86
2022/08/17 04:28:33;;;;;;;10.60;9.80;;;17.00;99.90;;;;;;4919200;28;21018;-85
2022/08/17 04:30:59;;;;;;;11.47;10.50;;;17.00;99.90;;;;;;4934959;28;20795;-85
2022/08/17 04:33:26;;;;;;;11.20;10.20;;;17.00;99.90;;;;;;4921376;28;20198;-86
2022/08/17 04:35:57;;;;;;;11.83;10.80;;;17.00;99.90;;;;;;4931469;28;20278;-86
2022/08/17 04:38:26;;;;;;;11.57;10.67;;;17.00;99.90;;;;;;4920478;28;20469;-87
2022/08/17 04:43:39;;;;;;;10.67;9.77;;;16.90;99.90;;;;;;4933413;28;20610;-86
2022/08/17 04:46:08;;;;;;;11.93;10.83;;;17.10;99.90;;;;;;4921556;28;20446;-84
2022/08/17 04:48:40;;;;;;;11.67;10.50;;;17.10;99.90;;;;;;4921952;28;20541;-85
2022/08/17 04:51:15;;;;;;;12.40;11.40;;;17.10;99.90;;;;;;4908493;28;20912;-86
2022/08/17 04:53:43;;;;;;;11.43;10.53;;;17.10;99.90;;;;;;4906038;28;20450;-85
2022/08/17 04:56:10;;;;;;;11.03;10.23;;;17.00;99.90;;;;;;4918346;28;20530;-85
2022/08/17 04:58:36;;;;;;;11.73;10.73;;;16.90;99.90;;;;;;4901532;28;20490;-85
2022/08/17 05:01:02;;;;;;;11.73;10.53;;;16.90;99.90;;;;;;4922807;28;20498;-86
2022/08/17 05:03:28;;;;;;;12.37;11.37;;;17.00;99.90;;;;;;4906635;28;20541;-85
2022/08/17 05:05:57;;;;;;;11.13;10.20;;;17.10;99.90;;;;;;4915292;28;20454;-86
2022/08/17 05:08:22;;;;;;;11.73;10.63;;;17.10;99.90;;;;;;4903762;28;20454;-85
2022/08/17 05:10:49;;;;;;;12.53;11.43;;;17.10;99.90;;;;;;4902897;28;20457;-86
2022/08/17 05:13:21;;;;;;;11.97;10.90;;;17.10;99.90;;;;;;4900149;28;20191;-85
2022/08/17 05:15:48;;;;;;;11.97;11.03;;;17.10;99.90;;;;;;4906665;28;20865;-86
2022/08/17 05:18:16;;;;;;;12.50;11.47;;;17.20;99.90;;;;;;4921779;28;20513;-86
2022/08/17 05:20:42;;;;;;;12.47;11.50;;;17.40;99.90;;;;;;4895937;28;21057;-85
2022/08/17 05:23:11;;;;;;;11.87;10.77;;;17.50;99.90;;;;;;4897486;28;20682;-85
2022/08/17 05:25:43;;;;;;;11.97;10.80;;;17.60;99.90;;;;;;4896933;28;20430;-87
2022/08/17 05:28:10;;;;;;;11.97;10.80;;;17.80;99.90;;;;;;4901734;28;20442;-84
2022/08/17 05:30:37;;;;;;;11.93;10.93;;;17.90;99.90;;;;;;4922484;28;20464;-86
2022/08/17 05:33:04;;;;;;;11.80;10.80;;;18.10;99.90;;;;;;4903893;28;20450;-86
2022/08/17 05:35:32;;;;;;;11.60;10.60;;;18.10;99.90;;;;;;4914326;28;20493;-87
2022/08/17 05:37:58;;;;;;;12.00;10.80;;;18.30;99.90;;;;;;4908000;28;20494;-88
2022/08/17 05:40:24;;;;;;;11.60;10.70;;;18.40;99.90;;;;;;4925056;28;20854;-86
2022/08/17 05:42:51;;;;;;;11.00;10.10;;;18.40;99.90;;;;;;4924880;28;20978;-87
2022/08/17 05:45:19;;;;;;;11.47;10.67;;;18.60;99.90;;;;;;4922632;28;20434;-87
2022/08/17 05:47:45;;;;;;;11.90;10.70;;;18.60;99.90;;;;;;4903414;28;20443;-85
2022/08/17 05:50:21;;;;;;;13.13;11.87;;;18.60;99.90;;;;;;4924304;28;20493;-87
2022/08/17 05:53:07;;;;;;;11.93;11.00;;;18.70;99.90;;;;;;4930789;28;20866;-87
2022/08/17 05:55:36;;;;;;;11.77;10.77;;;18.70;99.90;;;;;;4926268;28;20494;-87
2022/08/17 05:58:30;;;;;;;11.70;10.70;;;18.80;99.90;;;;;;4908850;28;20529;-87
2022/08/17 06:01:05;;;;;;;12.43;11.43;;;18.70;99.90;;;;;;4927590;28;20470;-86
2022/08/17 06:03:37;;;;;;;11.30;10.40;;;18.70;99.90;;;;;;4918735;28;20474;-87
2022/08/17 06:06:18;;;;;;;11.67;10.70;;;18.80;99.90;;;;;;4911271;28;20920;-87
2022/08/17 06:09:06;;;;;;;11.73;10.70;;;18.90;99.90;;;;;;4913959;28;21994;-87
2022/08/17 06:11:44;;;;;;;11.70;10.60;;;19.00;99.90;;;;;;4915412;28;20474;-87
2022/08/17 06:14:31;;;;;;;11.40;10.57;;;19.10;99.90;;;;;;4912973;28;21147;-87
2022/08/17 06:17:09;;;;;;;11.63;10.73;;;19.10;99.90;;;;;;4927344;28;20439;-87
2022/08/17 06:19:40;;;;;;;11.77;10.83;;;19.20;99.90;;;;;;4906304;28;20450;-87
2022/08/17 06:22:20;;;;;;;11.97;10.67;;;19.30;99.90;;;;;;4925065;28;20458;-87
2022/08/17 06:25:01;;;;;;;11.20;10.10;;;19.40;99.90;;;;;;4908092;28;20797;-87
2022/08/17 06:27:47;;;;;;;11.60;10.60;;;19.70;99.90;;;;;;4914393;28;20454;-88
2022/08/17 06:30:28;;;;;;;11.30;10.20;;;19.80;99.90;;;;;;4912523;28;21017;-88
2022/08/17 06:32:58;;;;;;;10.83;9.83;;;20.00;99.90;;;;;;4930779;28;20450;-87
2022/08/17 06:35:37;;;;;;;10.40;9.50;;;20.10;99.90;;;;;;4911071;28;20435;-87
2022/08/17 06:38:20;;;;;;;10.73;9.77;;;20.20;99.90;;;;;;4924416;28;20909;-87
2022/08/17 06:41:00;;;;;;;10.23;9.43;;;20.20;99.90;;;;;;4907214;28;20438;-87
2022/08/17 06:43:46;;;;;;;11.10;10.10;;;20.40;99.90;;;;;;4915214;28;21038;-88
2022/08/17 06:46:17;;;;;;;11.03;9.33;;;20.60;99.90;;;;;;4908779;28;21288;-88
2022/08/17 06:48:48;;;;;;;10.10;9.27;;;20.80;99.90;;;;;;4913664;28;21714;-88
2022/08/17 06:51:24;;;;;;;10.40;9.50;;;21.00;99.90;;;;;;4935009;28;20446;-89
2022/08/17 06:54:04;;;;;;;11.13;10.27;;;21.20;99.90;;;;;;4909897;28;20449;-87
2022/08/17 06:57:04;;;;;;;9.90;9.10;;;21.40;99.90;;;;;;4928635;28;21055;-87
2022/08/17 06:59:49;;;;;;;11.23;10.30;;;21.50;99.90;;;;;;4926560;28;20711;-88
2022/08/17 07:02:24;;;;;;;10.17;9.30;;;21.40;99.90;;;;;;4910262;28;20447;-88
2022/08/17 07:04:51;;;;;;;10.00;9.20;;;21.40;99.90;;;;;;4931896;28;20439;-88
2022/08/17 07:10:07;;;;;;;10.07;9.27;;;21.70;99.90;;;;;;4930123;28;21073;-88
2022/08/17 07:12:38;;;;;;;9.00;8.30;;;21.70;99.90;;;;;;4923225;28;20966;-88
2022/08/17 07:15:17;;;;;;;9.43;8.60;;;21.70;99.90;;;;;;4924605;28;20597;-88
2022/08/17 07:17:45;;;;;;;9.53;8.67;;;21.80;99.90;;;;;;4908618;28;21235;-88
2022/08/17 07:20:16;;;;;;;9.03;8.33;;;21.80;99.90;;;;;;4913033;28;20542;-88
2022/08/17 07:23:03;;;;;;;9.73;9.03;;;21.90;99.90;;;;;;4914813;28;20436;-88
2022/08/17 07:25:29;;;;;;;8.80;8.20;;;22.00;99.90;;;;;;4928511;28;20480;-89
2022/08/17 07:27:59;;;;;;;9.23;8.53;;;22.10;99.90;;;;;;4914193;28;20455;-88
2022/08/17 07:30:26;;;;;;;8.80;8.07;;;22.30;99.90;;;;;;4912794;28;20451;-88
2022/08/17 07:33:07;;;;;;;8.77;7.90;;;22.50;99.90;;;;;;4911731;28;20459;-88
2022/08/17 07:35:45;;;;;;;9.30;8.60;;;22.70;99.90;;;;;;4914176;28;20461;-88
2022/08/17 07:38:18;;;;;;;9.30;8.50;;;22.90;99.90;;;;;;4907683;28;21038;-88
2022/08/17 07:40:56;;;;;;;9.20;8.60;;;23.10;99.90;;;;;;4910539;28;21837;-87
2022/08/17 07:43:24;;;;;;;9.20;8.40;;;23.40;99.60;;;;;;4904166;28;20458;-88
2022/08/17 07:48:52;;;;;;;8.80;8.00;;;23.50;98.70;;;;;;4918788;28;20436;-88
2022/08/17 07:51:25;;;;;;;9.33;8.53;;;23.60;99.90;;;;;;4917034;28;20438;-88
2022/08/17 07:53:53;;;;;;;8.50;7.90;;;23.60;99.20;;;;;;4928045;28;20529;-88
2022/08/17 07:56:36;;;;;;;9.30;8.60;;;23.70;99.80;;;;;;4909014;28;21039;-88
2022/08/17 07:59:17;;;;;;;9.27;8.57;;;23.60;98.60;;;;;;4926611;28;21045;-88
2022/08/17 08:02:15;;;;;;;8.80;8.20;;;23.50;99.90;;;;;;4912824;28;20437;-88
2022/08/17 08:05:16;;;;;;;9.60;8.80;;;23.40;99.90;;;;;;4925907;28;20466;-88
2022/08/17 08:07:54;;;;;;;9.63;8.93;;;23.40;99.90;;;;;;4889809;28;21063;-87
2022/08/17 08:10:37;;;;;;;9.17;8.47;;;23.40;99.90;;;;;;4923967;28;20530;-87
2022/08/17 08:13:29;;;;;;;8.90;8.20;;;23.30;99.90;;;;;;4925735;28;20465;-87
2022/08/17 08:16:15;;;;;;;9.20;8.50;;;23.20;99.90;;;;;;4920531;28;20436;-87
2022/08/17 08:18:44;;;;;;;9.60;8.80;;;23.30;99.90;;;;;;4911496;28;20494;-87
2022/08/17 08:21:16;;;;;;;8.90;8.20;;;23.50;99.90;;;;;;4917085;28;20509;-88
2022/08/17 08:23:49;;;;;;;9.43;8.73;;;23.80;99.20;;;;;;4909619;28;20471;-88
2022/08/17 08:26:33;;;;;;;8.47;7.83;;;24.10;98.00;;;;;;4910784;28;21709;-88
2022/08/17 08:29:10;;;;;;;8.47;7.77;;;24.20;98.60;;;;;;4911955;28;20454;-87
2022/08/17 08:32:06;;;;;;;9.13;8.43;;;24.10;97.30;;;;;;4917707;28;20555;-88
2022/08/17 08:34:47;;;;;;;8.60;8.00;;;24.20;96.30;;;;;;4917307;28;21139;-86
2022/08/17 08:37:30;;;;;;;9.13;8.23;;;24.20;96.90;;;;;;4926194;28;20462;-87
2022/08/17 08:43:34;;;;;;;9.40;8.60;;;24.40;97.20;;;;;;4911150;28;20446;-87
2022/08/17 08:46:13;;;;;;;8.93;8.23;;;24.20;96.40;;;;;;4911169;28;20453;-89
2022/08/17 08:48:58;;;;;;;8.77;8.07;;;24.00;97.20;;;;;;4908770;28;20445;-87
2022/08/17 08:51:56;;;;;;;8.87;8.27;;;23.80;96.80;;;;;;4931714;28;20439;-87
2022/08/17 08:54:50;;;;;;;9.37;8.67;;;23.70;97.00;;;;;;4913358;28;20447;-87
2022/08/17 08:57:29;;;;;;;8.63;8.13;;;23.50;97.40;;;;;;4908438;28;20463;-87
2022/08/17 09:00:04;;;;;;;8.50;7.90;;;23.30;98.40;;;;;;4909650;28;21830;-88
2022/08/17 09:02:48;;;;;;;8.60;8.00;;;23.40;97.90;;;;;;4909173;28;20964;-87
2022/08/17 09:05:35;;;;;;;10.20;9.20;;;23.50;98.30;;;;;;4925046;28;21122;-88
2022/08/17 09:08:27;;;;;;;9.10;8.50;;;23.70;97.30;;;;;;4918950;28;20557;-87
2022/08/17 09:11:08;;;;;;;8.23;7.70;;;23.70;97.10;;;;;;4919562;28;20458;-87
2022/08/17 09:13:45;;;;;;;8.83;8.03;;;23.90;97.00;;;;;;4913388;28;20889;-87
2022/08/17 09:16:28;;;;;;;8.57;7.80;;;23.90;97.60;;;;;;4909728;28;20482;-87
2022/08/17 09:19:01;;;;;;;8.10;7.50;;;24.00;97.10;;;;;;4905298;28;20757;-87
2022/08/17 09:21:51;;;;;;;9.30;8.20;;;24.00;97.00;;;;;;4907090;28;20435;-87
2022/08/17 09:24:38;;;;;;;8.70;8.00;;;23.90;97.60;;;;;;4910694;28;20968;-87
2022/08/17 09:27:34;;;;;;;9.60;8.73;;;23.80;98.30;;;;;;4925340;28;21003;-87
2022/08/17 09:30:06;;;;;;;8.83;8.17;;;23.70;97.50;;;;;;4906720;28;20525;-87
2022/08/17 09:32:48;;;;;;;9.23;8.53;;;23.60;98.40;;;;;;4903439;28;20805;-87
2022/08/17 09:35:21;;;;;;;8.70;8.03;;;23.60;98.70;;;;;;4920102;28;20443;-87
2022/08/17 09:38:14;;;;;;;8.80;8.10;;;23.60;98.80;;;;;;4927089;28;20505;-87
2022/08/17 09:41:09;;;;;;;8.60;7.90;;;23.70;98.50;;;;;;4925429;28;20670;-87
2022/08/17 09:43:40;;;;;;;8.90;8.30;;;23.90;99.60;;;;;;4901080;28;20590;-86
2022/08/17 09:46:32;;;;;;;9.93;8.87;;;24.00;99.20;;;;;;4910152;28;20439;-86
2022/08/17 09:49:29;;;;;;;8.70;7.80;;;24.00;98.90;;;;;;4907166;28;21325;-86
2022/08/17 09:52:14;;;;;;;8.70;8.00;;;24.00;99.10;;;;;;4903281;28;20802;-87
2022/08/17 09:54:42;;;;;;;9.67;8.77;;;24.20;98.80;;;;;;4925179;28;20548;-88
2022/08/17 10:00:45;;;;;;;9.13;8.53;;;24.60;97.50;;;;;;4928011;28;20573;-91
2022/08/17 10:03:33;;;;;;;8.77;8.17;;;24.70;97.40;;;;;;4907501;28;20541;-89
2022/08/17 10:06:27;;;;;;;8.63;7.93;;;24.80;97.70;;;;;;4918874;28;20454;-92
2022/08/17 10:09:17;;;;;;;9.50;8.70;;;24.70;97.60;;;;;;4924888;28;20574;-91
2022/08/17 10:14:44;;;;;;;8.80;8.20;;;24.70;97.00;;;;;;4929992;28;20474;-91
2022/08/17 10:17:31;;;;;;;8.10;7.30;;;24.80;96.50;;;;;;4922025;28;20451;-90
2022/08/17 10:20:11;;;;;;;8.00;7.30;;;24.80;96.20;;;;;;4911654;28;20454;-90
2022/08/17 10:28:21;;;;;;;8.60;8.00;;;24.60;97.30;;;;;;4918226;28;20453;-90
2022/08/17 10:30:53;;;;;;;8.80;8.20;;;24.60;98.00;;;;;;4909241;28;20481;-89
2022/08/17 10:33:32;;;;;;;8.20;7.50;;;24.50;96.30;;;;;;4924368;28;20446;-89
2022/08/17 10:36:26;;;;;;;9.10;8.50;;;24.60;97.40;;;;;;4923371;28;20530;-90
2022/08/17 10:39:10;;;;;;;8.57;7.97;;;24.70;97.60;;;;;;4916940;28;20487;-91
2022/08/17 10:42:01;;;;;;;8.87;8.17;;;24.80;99.10;;;;;;4908155;28;20449;-92
2022/08/17 10:44:55;;;;;;;7.73;7.20;;;24.90;98.40;;;;;;4925445;28;20471;-92
2022/08/17 10:47:23;;;;;;;7.90;7.40;;;25.20;98.60;;;;;;4920360;28;20451;-91
2022/08/17 10:49:54;;;;;;;9.20;8.43;;;25.30;98.50;;;;;;4910648;28;20445;-91
2022/08/17 10:52:24;;;;;;;8.57;8.07;;;25.20;99.00;;;;;;4909777;28;20502;-91
2022/08/17 10:54:50;;;;;;;8.87;8.27;;;25.40;99.50;;;;;;4913498;28;20454;-91
2022/08/17 10:57:39;;;;;;;8.37;7.80;;;25.70;99.30;;;;;;4911110;28;20796;-90
2022/08/17 11:00:13;;;;;;;8.23;7.73;;;26.40;96.00;;;;;;4924987;28;20191;-91
2022/08/17 11:02:56;;;;;;;8.23;7.53;;;26.90;95.30;;;;;;4916806;28;20526;-91
2022/08/17 11:05:27;;;;;;;8.40;7.90;;;27.50;93.90;;;;;;4905813;28;20700;-91
2022/08/17 11:08:11;;;;;;;8.20;7.50;;;27.80;95.70;;;;;;4908560;28;20500;-91
2022/08/17 11:11:07;;;;;;;7.60;6.90;;;27.60;94.60;;;;;;4918811;28;20964;-92
2022/08/17 11:14:15;;;;;;;7.00;6.07;;;27.40;93.40;;;;;;4914954;28;20503;-90
2022/08/17 11:17:11;;;;;;;6.97;6.47;;;27.40;91.20;;;;;;4924868;28;20521;-90
2022/08/17 11:20:18;;;;;;;6.80;5.80;;;27.00;91.50;;;;;;4915797;28;20538;-91
2022/08/17 11:23:15;;;;;;;7.07;6.57;;;26.30;91.30;;;;;;4928584;28;20442;-91
2022/08/17 11:25:45;;;;;;;6.17;5.77;;;25.60;92.80;;;;;;4914732;28;20895;-91
2022/08/17 11:28:21;;;;;;;6.53;6.03;;;25.10;94.30;;;;;;4912170;28;20468;-91
2022/08/17 11:31:02;;;;;;;6.27;5.87;;;24.80;94.60;;;;;;4908090;28;20798;-89
2022/08/17 11:33:27;;;;;;;6.27;5.77;;;24.80;95.70;;;;;;4924506;28;20449;-91
2022/08/17 11:36:20;;;;;;;5.10;4.80;;;24.50;93.70;;;;;;4910969;28;20462;-91
2022/08/17 11:39:01;;;;;;;5.40;4.90;;;24.30;92.00;;;;;;4925135;28;20482;-90
2022/08/17 11:41:57;;;;;;;5.73;5.33;;;24.30;92.00;;;;;;4911998;28;20465;-90
2022/08/17 11:44:41;;;;;;;4.47;4.07;;;24.30;92.10;;;;;;4912757;28;20452;-90
2022/08/17 11:53:39;;;;;;;4.80;4.40;;;23.90;93.60;;;;;;4923668;28;20528;-93
2022/08/17 11:56:43;;;;;;;5.30;5.00;;;23.80;93.50;;;;;;4907892;29;20489;-92
2022/08/17 11:59:35;;;;;;;5.40;5.00;;;23.90;94.60;;;;;;4919918;28;20478;-93
2022/08/17 12:02:03;;;;;;;4.80;4.40;;;23.90;94.40;;;;;;4908246;28;20456;-91
2022/08/17 12:04:31;;;;;;;4.83;4.43;;;23.80;94.00;;;;;;4912521;28;20435;-91
2022/08/17 12:07:15;;;;;;;5.13;4.83;;;23.80;94.20;;;;;;4914503;28;20443;-91
2022/08/17 12:09:47;;;;;;;4.70;4.40;;;24.00;93.90;;;;;;4924626;28;20497;-92
2022/08/17 12:12:21;;;;;;;4.97;4.57;;;24.30;94.10;;;;;;4921104;28;20457;-91
2022/08/17 12:14:57;;;;;;;5.80;4.80;;;25.10;94.30;;;;;;4908834;28;20861;-91
2022/08/17 12:17:26;;;;;;;5.37;5.00;;;25.80;93.20;;;;;;4909367;28;20508;-91
2022/08/17 12:19:57;;;;;;;4.57;4.17;;;26.20;91.10;;;;;;4911618;28;20450;-91
2022/08/17 12:23:19;;;;;;;5.07;4.07;;;26.40;90.90;;;;;;4910375;28;21206;-91
2022/08/17 12:26:15;;;;;;;4.83;4.53;;;26.50;90.20;;;;;;4924163;28;20454;-92
2022/08/17 12:28:54;;;;;;;7.43;4.57;;;26.50;90.20;;;;;;4933701;28;20442;-92
2022/08/17 12:31:48;;;;;;;4.90;4.60;;;26.30;90.00;;;;;;4938725;28;20497;-93
2022/08/17 12:34:41;;;;;;;5.07;4.77;;;26.20;89.80;;;;;;4922715;28;20862;-91
2022/08/17 12:37:18;;;;;;;5.00;4.70;;;26.60;88.50;;;;;;4914618;28;20518;-92
2022/08/17 12:40:07;;;;;;;5.50;5.10;;;27.40;90.00;;;;;;4935235;28;20441;-91
2022/08/17 12:42:41;;;;;;;4.60;4.30;;;28.80;85.60;;;;;;4931379;28;20447;-91
2022/08/17 12:45:45;;;;;;;4.77;4.47;;;28.30;82.20;;;;;;4929938;28;20438;-91
2022/08/17 12:48:22;;;;;;;4.97;4.60;;;28.10;79.70;;;;;;4905112;28;21358;-92
2022/08/17 12:50:49;;;;;;;4.93;4.63;;;27.80;82.10;;;;;;4911097;28;20446;-92
2022/08/17 12:53:34;;;;;;;5.17;4.63;;;28.20;79.20;;;;;;4911265;28;20438;-90
2022/08/17 12:56:13;;;;;;;5.03;4.73;;;28.10;79.20;;;;;;4924124;28;20471;-93
2022/08/17 12:58:54;;;;;;;5.10;4.70;;;28.40;79.80;;;;;;4922684;28;20884;-91
2022/08/17 13:01:41;;;;;;;5.40;4.90;;;28.80;79.60;;;;;;4922408;28;20460;-91
2022/08/17 13:04:13;;;;;;;5.53;5.10;;;29.50;79.20;;;;;;4920168;28;20976;-90
2022/08/17 13:06:53;;;;;;;5.10;4.80;;;29.70;77.70;;;;;;4923782;28;20549;-92
2022/08/17 13:09:28;;;;;;;5.70;5.10;;;29.60;77.70;;;;;;4903518;28;20450;-88
2022/08/17 13:11:58;;;;;;;5.03;4.73;;;29.80;76.70;;;;;;4907477;28;20518;-90
2022/08/17 13:14:27;;;;;;;5.80;5.30;;;30.40;76.20;;;;;;4928403;28;20454;-89
2022/08/17 13:16:58;;;;;;;5.30;4.80;;;30.90;76.10;;;;;;4921088;28;20448;-89
2022/08/17 13:19:29;;;;;;;5.00;4.70;;;30.50;70.00;;;;;;4918136;28;20849;-89
2022/08/17 13:21:57;;;;;;;5.13;4.80;;;30.70;69.30;;;;;;4903604;28;20894;-89
2022/08/17 13:24:31;;;;;;;4.70;4.40;;;30.50;74.40;;;;;;4919328;28;20562;-89
2022/08/17 13:27:00;;;;;;;5.47;4.97;;;30.50;75.80;;;;;;4918065;28;20482;-90
2022/08/17 13:29:33;;;;;;;5.20;4.90;;;30.70;74.50;;;;;;4924565;28;21489;-89
2022/08/17 13:32:09;;;;;;;5.40;4.50;;;30.50;74.80;;;;;;4924211;28;20446;-89
2022/08/17 13:34:42;;;;;;;5.80;5.40;;;30.10;74.60;;;;;;4904706;28;20655;-89
2022/08/17 13:37:28;;;;;;;5.70;5.30;;;30.10;74.40;;;;;;4918889;28;20549;-90
2022/08/17 13:39:56;;;;;;;5.60;5.10;;;30.20;75.50;;;;;;4921929;28;20805;-90
2022/08/17 13:42:41;;;;;;;5.93;5.37;;;30.40;75.80;;;;;;4904874;28;21500;-90
2022/08/17 13:45:26;;;;;;;5.27;4.73;;;30.40;75.70;;;;;;4909071;28;20843;-89
2022/08/17 13:48:08;;;;;;;5.97;5.40;;;30.00;73.00;;;;;;4907055;28;20561;-91
2022/08/17 13:50:58;;;;;;;6.13;5.63;;;29.40;73.30;;;;;;4904727;28;20443;-91
2022/08/17 13:53:50;;;;;;;6.33;5.10;;;29.50;77.30;;;;;;4924451;28;20526;-92
2022/08/17 13:56:37;;;;;;;8.30;5.73;;;30.00;73.60;;;;;;4907973;28;20446;-91
2022/08/17 13:59:11;;;;;;;5.57;5.17;;;30.70;73.60;;;;;;4906347;28;20796;-93
2022/08/17 14:02:01;;;;;;;5.37;4.97;;;31.10;72.20;;;;;;4921269;28;21726;-90